KVTN/VTN METAR and TAF weather

Enter ICAO airport designator
Station Type Date Time Source
KVTN METAR 2020/07/02 17:52 UTC NOAA

KVTN 021752Z AUTO 16020G28KT 10SM CLR 31/18 A3002 RMK AO2 PK WND 17028/1749 SLP143 T03060178 10311 20178 58007


Station Type Date Time Source
KVTN Decoded METAR 2020/07/02 17:52 UTC NOAA

MILLER FIELD - VALENTINE, NE, NE, United States (KVTN) 42-52N 100-33W 788M
Jul 02, 2020 - 01:52 PM EDT / 2020.07.02 1752 UTC
Wind: from the SSE (160 degrees) at 23 MPH (20 KT) gusting to 32 MPH (28 KT):0
Visibility: 10 mile(s):0
Sky conditions: clear
Temperature: 87.1 F (30.6 C)
Dew Point: 64.0 F (17.8 C)
Relative Humidity: 46%
Pressure (altimeter): 30.02 in. Hg (1016 hPa)
Pressure tendency: 0.02 inches (0.7 hPa) lower than three hours ago
ob: KVTN 021752Z AUTO 16020G28KT 10SM CLR 31/18 A3002 RMK AO2 PK WND 17028/1749 SLP143 T03060178 10311 20178 58007
cycle: 18

Station Type Date Time Source
KVTN TAF 2020/07/02 18:42 UTC NOAA

TAF KVTN 021739Z 0218/0318 16013KT P6SM SCT250
FM030000 15015KT P6SM VCTS SCT250CB
FM030600 15011KT P6SM SCT250

Example: see airport list